createdAt,value
2022-08-17T00:00:42.900Z,100.00
2022-08-17T00:03:15.499Z,100.00
2022-08-17T00:05:58.377Z,100.00
2022-08-17T00:08:33.023Z,100.00
2022-08-17T00:11:06.679Z,100.00
2022-08-17T00:13:40.478Z,100.00
2022-08-17T00:16:13.608Z,100.00
2022-08-17T00:19:00.997Z,100.00
2022-08-17T00:22:29.462Z,100.00
2022-08-17T00:24:25.110Z,100.00
2022-08-17T00:26:53.671Z,100.00
2022-08-17T00:29:22.619Z,100.00
2022-08-17T00:31:52.085Z,100.00
2022-08-17T00:34:21.954Z,100.00
2022-08-17T00:36:50.432Z,100.00
2022-08-17T00:39:19.861Z,100.00
2022-08-17T00:41:48.201Z,100.00
2022-08-17T00:44:16.598Z,100.00
2022-08-17T00:46:45.056Z,100.00
2022-08-17T00:49:16.491Z,100.00
2022-08-17T00:51:50.639Z,100.00
2022-08-17T00:54:41.863Z,100.00
2022-08-17T00:57:29.256Z,100.00
2022-08-17T01:00:05.998Z,100.00
2022-08-17T01:02:50.887Z,100.00
2022-08-17T01:05:25.405Z,100.00
2022-08-17T01:07:54.504Z,100.00
2022-08-17T01:10:59.689Z,100.00
2022-08-17T01:13:21.669Z,100.00
2022-08-17T01:15:57.607Z,100.00
2022-08-17T01:18:27.759Z,100.00
2022-08-17T01:21:00.693Z,100.00
2022-08-17T01:23:30.754Z,100.00
2022-08-17T01:26:02.523Z,100.00
2022-08-17T01:28:53.155Z,100.00
2022-08-17T01:31:28.101Z,100.00
2022-08-17T01:34:00.622Z,100.00
2022-08-17T01:36:30.993Z,100.00
2022-08-17T01:39:00.383Z,100.00
2022-08-17T01:41:28.683Z,100.00
2022-08-17T01:44:06.564Z,100.00
2022-08-17T01:46:37.186Z,100.00
2022-08-17T01:49:12.329Z,100.00
2022-08-17T01:51:41.801Z,100.00
2022-08-17T01:54:13.897Z,100.00
2022-08-17T01:56:47.244Z,100.00
2022-08-17T01:59:18.385Z,100.00
2022-08-17T02:01:48.478Z,100.00
2022-08-17T02:04:17.124Z,100.00
2022-08-17T02:06:53.162Z,100.00
2022-08-17T02:09:25.590Z,100.00
2022-08-17T02:11:56.518Z,100.00
2022-08-17T02:14:25.914Z,100.00
2022-08-17T02:16:54.843Z,100.00
2022-08-17T02:19:23.245Z,100.00
2022-08-17T02:21:54.422Z,100.00
2022-08-17T02:24:59.992Z,100.00
2022-08-17T02:27:15.861Z,100.00
2022-08-17T02:29:44.351Z,100.00
2022-08-17T02:32:27.863Z,100.00
2022-08-17T02:34:58.515Z,100.00
2022-08-17T02:37:28.530Z,100.00
2022-08-17T02:39:58.684Z,100.00
2022-08-17T02:42:34.383Z,100.00
2022-08-17T02:45:06.537Z,100.00
2022-08-17T02:47:36.015Z,100.00
2022-08-17T02:50:06.956Z,100.00
2022-08-17T02:52:43.269Z,100.00
2022-08-17T02:55:21.786Z,100.00
2022-08-17T02:57:51.335Z,100.00
2022-08-17T03:00:27.073Z,100.00
2022-08-17T03:02:57.630Z,100.00
2022-08-17T03:05:29.250Z,100.00
2022-08-17T03:07:57.440Z,100.00
2022-08-17T03:10:26.828Z,100.00
2022-08-17T03:12:55.350Z,100.00
2022-08-17T03:15:27.181Z,100.00
2022-08-17T03:17:57.123Z,100.00
2022-08-17T03:20:29.230Z,100.00
2022-08-17T03:23:01.824Z,100.00
2022-08-17T03:25:39.669Z,100.00
2022-08-17T03:28:07.905Z,100.00
2022-08-17T03:30:37.299Z,100.00
2022-08-17T03:33:07.922Z,100.00
2022-08-17T03:35:38.019Z,100.00
2022-08-17T03:38:07.676Z,100.00
2022-08-17T03:40:58.204Z,100.00
2022-08-17T03:43:28.504Z,100.00
2022-08-17T03:46:27.624Z,100.00
2022-08-17T03:49:15.926Z,100.00
2022-08-17T03:52:02.706Z,100.00
2022-08-17T03:54:52.372Z,100.00
2022-08-17T03:57:22.303Z,100.00
2022-08-17T03:59:52.083Z,100.00
2022-08-17T04:02:27.445Z,100.00
2022-08-17T04:04:56.619Z,100.00
2022-08-17T04:07:27.862Z,100.00
2022-08-17T04:09:58.336Z,100.00
2022-08-17T04:12:31.239Z,100.00
2022-08-17T04:15:00.087Z,100.00
2022-08-17T04:17:29.522Z,100.00
2022-08-17T04:19:57.703Z,100.00
2022-08-17T04:22:32.869Z,100.00
2022-08-17T04:25:04.697Z,100.00
2022-08-17T04:27:32.955Z,100.00
2022-08-17T04:30:02.242Z,100.00
2022-08-17T04:33:04.973Z,100.00
2022-08-17T04:35:26.958Z,100.00
2022-08-17T04:37:55.237Z,100.00
2022-08-17T04:40:44.332Z,100.00
2022-08-17T04:43:14.487Z,100.00
2022-08-17T04:45:59.116Z,100.00
2022-08-17T04:48:37.632Z,100.00
2022-08-17T04:51:23.937Z,100.00
2022-08-17T04:53:56.920Z,100.00
2022-08-17T04:56:27.562Z,100.00
2022-08-17T04:59:00.438Z,100.00
2022-08-17T05:01:31.550Z,100.00
2022-08-17T05:04:33.663Z,100.00
2022-08-17T05:06:55.331Z,100.00
2022-08-17T05:09:23.634Z,100.00
2022-08-17T05:11:52.894Z,100.00
2022-08-17T05:14:32.989Z,100.00
2022-08-17T05:17:07.043Z,100.00
2022-08-17T05:19:39.385Z,100.00
2022-08-17T05:22:08.314Z,100.00
2022-08-17T05:24:42.698Z,100.00
2022-08-17T05:27:14.346Z,100.00
2022-08-17T05:29:47.741Z,100.00
2022-08-17T05:32:38.770Z,100.00
2022-08-17T05:35:05.570Z,100.00
2022-08-17T05:37:33.887Z,100.00
2022-08-17T05:40:02.046Z,100.00
2022-08-17T05:42:30.394Z,100.00
2022-08-17T05:44:59.273Z,100.00
2022-08-17T05:47:28.555Z,100.00
2022-08-17T05:49:58.965Z,100.00
2022-08-17T05:52:47.054Z,100.00
2022-08-17T05:55:40.018Z,100.00
2022-08-17T05:58:28.916Z,99.42
2022-08-17T06:00:57.087Z,98.82
2022-08-17T06:04:11.082Z,99.18
2022-08-17T06:06:56.777Z,99.52
2022-08-17T06:09:33.652Z,97.40
2022-08-17T06:12:24.287Z,96.77
2022-08-17T06:15:30.194Z,96.01
2022-08-17T06:18:05.936Z,93.71
2022-08-17T06:20:49.721Z,92.35
2022-08-17T06:23:32.854Z,91.73
2022-08-17T06:26:09.077Z,91.48
2022-08-17T06:29:00.858Z,90.71
2022-08-17T06:31:34.345Z,84.54
2022-08-17T06:34:06.999Z,81.30
2022-08-17T06:37:06.130Z,78.73
2022-08-17T06:39:59.498Z,73.87
2022-08-17T06:42:55.042Z,70.93
2022-08-17T06:45:42.203Z,68.99
2022-08-17T06:48:25.150Z,69.39
2022-08-17T06:51:04.224Z,67.27
2022-08-17T06:53:45.742Z,61.61
2022-08-17T06:56:53.248Z,61.31
2022-08-17T06:59:54.676Z,60.06
2022-08-17T07:02:52.250Z,59.84
2022-08-17T07:05:24.569Z,58.60
2022-08-17T07:08:12.092Z,59.74
2022-08-17T07:10:53.098Z,59.41
2022-08-17T07:13:55.588Z,59.47
2022-08-17T07:16:31.602Z,59.85
2022-08-17T07:19:00.359Z,59.37
2022-08-17T07:21:38.723Z,58.07
2022-08-17T07:24:29.883Z,55.90
2022-08-17T07:27:27.761Z,56.93
2022-08-17T07:30:06.857Z,57.43
2022-08-17T07:32:57.898Z,58.70
2022-08-17T07:35:31.296Z,60.21
2022-08-17T07:38:24.732Z,60.98
2022-08-17T07:40:58.205Z,60.62
2022-08-17T07:43:31.666Z,61.40
2022-08-17T07:46:24.931Z,60.76
2022-08-17T07:48:56.766Z,61.22
2022-08-17T07:51:27.748Z,60.22
2022-08-17T07:54:13.682Z,58.94
2022-08-17T07:56:50.954Z,57.85
2022-08-17T07:59:33.413Z,58.26
2022-08-17T08:02:31.117Z,57.11
2022-08-17T08:05:10.110Z,57.06
2022-08-17T08:07:55.431Z,57.27
2022-08-17T08:10:39.149Z,57.17
2022-08-17T08:13:20.817Z,57.39
2022-08-17T08:15:54.656Z,56.13
2022-08-17T08:18:53.387Z,55.31
2022-08-17T08:21:41.865Z,54.24
2022-08-17T08:24:15.980Z,53.37
2022-08-17T08:26:59.398Z,52.69
2022-08-17T08:30:04.985Z,50.89
2022-08-17T08:33:13.364Z,50.19
2022-08-17T08:36:04.369Z,49.05
2022-08-17T08:38:54.047Z,48.32
2022-08-17T08:41:22.328Z,46.94
2022-08-17T08:44:10.094Z,47.19
2022-08-17T08:46:53.131Z,47.49
2022-08-17T08:49:58.962Z,47.39
2022-08-17T08:52:43.646Z,47.37
2022-08-17T08:55:24.186Z,47.06
2022-08-17T08:58:08.897Z,47.23
2022-08-17T09:01:00.342Z,47.84
2022-08-17T09:04:10.914Z,47.59
2022-08-17T09:06:58.157Z,46.03
2022-08-17T09:09:47.424Z,45.59
2022-08-17T09:12:33.880Z,45.54
2022-08-17T09:15:13.121Z,45.82
2022-08-17T09:18:59.843Z,45.85
2022-08-17T09:21:02.628Z,46.13
2022-08-17T09:23:42.404Z,46.45
2022-08-17T09:26:22.188Z,45.94
2022-08-17T09:28:56.233Z,45.32
2022-08-17T09:31:49.268Z,45.09
2022-08-17T09:34:31.899Z,46.02
2022-08-17T09:37:11.520Z,47.33
2022-08-17T09:39:50.382Z,47.52
2022-08-17T09:42:41.304Z,47.95
2022-08-17T09:45:25.244Z,47.62
2022-08-17T09:48:00.426Z,48.24
2022-08-17T09:51:04.245Z,48.13
2022-08-17T09:53:23.701Z,46.43
2022-08-17T09:56:10.376Z,45.04
2022-08-17T09:59:01.617Z,46.17
2022-08-17T10:01:47.698Z,46.50
2022-08-17T10:04:41.239Z,47.06
2022-08-17T10:07:46.682Z,46.39
2022-08-17T10:10:52.458Z,46.77
2022-08-17T10:14:02.009Z,47.51
2022-08-17T10:17:00.822Z,45.87
2022-08-17T10:19:38.831Z,44.48
2022-08-17T10:22:57.293Z,43.71
2022-08-17T10:25:59.779Z,44.00
2022-08-17T10:28:36.807Z,43.32
2022-08-17T10:34:20.860Z,40.94
2022-08-17T10:36:57.113Z,40.98
2022-08-17T10:39:50.409Z,40.45
2022-08-17T10:42:32.821Z,40.56
2022-08-17T10:45:16.276Z,41.06
2022-08-17T10:48:07.640Z,39.46
2022-08-17T10:50:47.067Z,38.55
2022-08-17T10:53:35.544Z,38.38
2022-08-17T10:56:13.448Z,39.26
2022-08-17T10:58:55.144Z,39.76
2022-08-17T11:01:29.784Z,40.27
2022-08-17T11:04:25.439Z,39.56
2022-08-17T11:07:21.741Z,39.75
2022-08-17T11:10:15.464Z,39.73
2022-08-17T11:12:54.597Z,39.67
2022-08-17T11:15:39.074Z,38.64
2022-08-17T11:18:29.411Z,38.26
2022-08-17T11:21:06.386Z,38.97
2022-08-17T11:23:46.759Z,39.22
2022-08-17T11:26:26.402Z,38.56
2022-08-17T11:29:01.695Z,38.85
2022-08-17T11:31:40.042Z,38.67
2022-08-17T11:34:28.088Z,38.50
2022-08-17T11:37:31.760Z,39.23
2022-08-17T11:40:27.180Z,39.56
2022-08-17T11:42:58.099Z,38.47
2022-08-17T11:45:33.077Z,37.23
2022-08-17T11:48:29.164Z,37.17
2022-08-17T11:51:32.075Z,37.71
2022-08-17T11:54:30.736Z,37.37
2022-08-17T11:56:51.570Z,37.61
2022-08-17T11:59:36.076Z,37.93
2022-08-17T12:02:32.848Z,38.51
2022-08-17T12:05:23.091Z,37.40
2022-08-17T12:08:10.959Z,37.31
2022-08-17T12:10:52.259Z,37.96
2022-08-17T12:13:22.034Z,37.80
2022-08-17T12:15:53.394Z,37.76
2022-08-17T12:18:28.613Z,38.07
2022-08-17T12:21:40.574Z,36.54
2022-08-17T12:24:20.715Z,35.83
2022-08-17T12:26:55.972Z,35.69
2022-08-17T12:29:35.556Z,35.58
2022-08-17T12:32:17.764Z,36.12
2022-08-17T12:34:49.417Z,36.41
2022-08-17T12:37:24.638Z,36.50
2022-08-17T12:40:08.854Z,36.46
2022-08-17T12:42:39.642Z,36.83
2022-08-17T12:45:24.763Z,36.93
2022-08-17T12:48:14.732Z,36.00
2022-08-17T12:50:46.391Z,35.48
2022-08-17T12:53:17.296Z,35.36
2022-08-17T12:55:46.505Z,35.35
2022-08-17T12:58:25.499Z,35.89
2022-08-17T13:01:09.062Z,36.72
2022-08-17T13:03:45.757Z,36.95
2022-08-17T13:06:26.624Z,36.75
2022-08-17T13:08:55.006Z,37.01
2022-08-17T13:11:25.583Z,36.77
2022-08-17T13:13:56.698Z,36.62
2022-08-17T13:16:33.550Z,36.81
2022-08-17T13:19:39.694Z,36.15
2022-08-17T13:22:13.028Z,35.49
2022-08-17T13:24:56.541Z,35.84
2022-08-17T13:27:27.798Z,35.65
2022-08-17T13:30:00.465Z,35.66
2022-08-17T13:32:33.591Z,35.95
2022-08-17T13:35:29.625Z,36.08
2022-08-17T13:38:06.800Z,36.37
2022-08-17T13:40:45.358Z,36.70
2022-08-17T13:43:48.885Z,36.77
2022-08-17T13:46:22.747Z,36.67
2022-08-17T13:49:01.607Z,36.92
2022-08-17T13:51:34.270Z,37.36
2022-08-17T13:54:06.195Z,37.64
2022-08-17T13:56:52.363Z,37.60
2022-08-17T13:59:53.380Z,37.96
2022-08-17T14:02:27.710Z,38.46
2022-08-17T14:04:59.161Z,38.76
2022-08-17T14:07:34.952Z,39.27
2022-08-17T14:10:14.747Z,39.56
2022-08-17T14:12:44.794Z,39.08
2022-08-17T14:15:16.188Z,38.41
2022-08-17T14:17:44.436Z,38.37
2022-08-17T14:20:13.827Z,38.26
2022-08-17T14:22:50.184Z,37.25
2022-08-17T14:25:27.031Z,36.69
2022-08-17T14:27:56.561Z,36.34
2022-08-17T14:30:30.001Z,36.19
2022-08-17T14:32:59.312Z,36.81
2022-08-17T14:35:29.623Z,37.32
2022-08-17T14:37:58.846Z,37.56
2022-08-17T14:40:28.245Z,38.32
2022-08-17T14:42:57.953Z,39.58
2022-08-17T14:45:30.421Z,40.22
2022-08-17T14:48:04.573Z,41.30
2022-08-17T14:50:35.205Z,42.64
2022-08-17T14:53:06.706Z,43.27
2022-08-17T14:55:36.971Z,43.13
2022-08-17T14:58:05.700Z,43.41
2022-08-17T15:00:34.145Z,43.69
2022-08-17T15:03:02.831Z,44.67
2022-08-17T15:05:35.113Z,45.13
2022-08-17T15:08:05.730Z,45.76
2022-08-17T15:10:34.692Z,45.93
2022-08-17T15:13:04.054Z,46.23
2022-08-17T15:15:32.214Z,46.96
2022-08-17T15:18:00.791Z,46.97
2022-08-17T15:20:30.703Z,47.24
2022-08-17T15:23:00.176Z,47.57
2022-08-17T15:25:32.484Z,47.47
2022-08-17T15:28:01.721Z,47.36
2022-08-17T15:30:31.300Z,47.63
2022-08-17T15:33:01.092Z,47.49
2022-08-17T15:35:32.818Z,48.00
2022-08-17T15:38:10.186Z,48.00
2022-08-17T15:40:43.543Z,48.23
2022-08-17T15:43:26.400Z,49.11
2022-08-17T15:46:04.830Z,51.51
2022-08-17T15:48:41.647Z,55.82
2022-08-17T15:51:23.563Z,59.02
2022-08-17T15:54:04.417Z,63.83
2022-08-17T15:56:51.496Z,69.95
2022-08-17T15:59:20.341Z,77.31
2022-08-17T16:03:01.733Z,83.79
2022-08-17T16:04:40.212Z,90.32
2022-08-17T16:07:12.230Z,94.14
2022-08-17T16:09:40.783Z,95.34
2022-08-17T16:12:18.128Z,95.00
2022-08-17T16:14:48.827Z,95.88
2022-08-17T16:17:39.912Z,96.61
2022-08-17T16:20:06.655Z,95.95
2022-08-17T16:22:38.891Z,94.20
2022-08-17T16:25:21.392Z,95.61
2022-08-17T16:27:53.629Z,94.62
2022-08-17T16:30:24.775Z,93.37
2022-08-17T16:32:57.804Z,93.40
2022-08-17T16:35:27.304Z,92.34
2022-08-17T16:37:58.522Z,91.50
2022-08-17T16:40:29.011Z,92.20
2022-08-17T16:42:57.848Z,91.31
2022-08-17T16:45:29.465Z,92.04
2022-08-17T16:47:59.294Z,92.10
2022-08-17T16:50:27.460Z,92.40
2022-08-17T16:53:04.896Z,91.17
2022-08-17T16:55:35.655Z,90.38
2022-08-17T16:58:05.661Z,91.16
2022-08-17T17:00:35.194Z,91.06
2022-08-17T17:03:19.768Z,90.77
2022-08-17T17:05:58.167Z,91.34
2022-08-17T17:08:32.227Z,91.62
2022-08-17T17:11:13.900Z,91.59
2022-08-17T17:14:02.414Z,92.43
2022-08-17T17:16:35.763Z,92.71
2022-08-17T17:19:45.899Z,92.17
2022-08-17T17:22:19.259Z,92.35
2022-08-17T17:24:56.807Z,92.64
2022-08-17T17:27:39.270Z,91.66
2022-08-17T17:30:15.669Z,93.62
2022-08-17T17:32:49.906Z,94.54
2022-08-17T17:35:21.342Z,94.42
2022-08-17T17:37:52.152Z,94.27
2022-08-17T17:40:32.025Z,94.27
2022-08-17T17:43:20.422Z,95.44
2022-08-17T17:45:57.021Z,94.93
2022-08-17T17:48:31.035Z,95.08
2022-08-17T17:51:55.739Z,95.99
2022-08-17T17:54:26.196Z,95.83
2022-08-17T17:57:02.443Z,95.89
2022-08-17T17:59:47.698Z,95.78
2022-08-17T18:02:51.917Z,96.06
2022-08-17T18:05:30.110Z,95.65
2022-08-17T18:08:19.211Z,95.37
2022-08-17T18:10:55.282Z,95.53
2022-08-17T18:13:57.006Z,95.68
2022-08-17T18:16:29.830Z,95.77
2022-08-17T18:19:00.718Z,95.22
2022-08-17T18:21:44.671Z,95.43
2022-08-17T18:24:13.755Z,95.22
2022-08-17T18:26:57.749Z,95.35
2022-08-17T18:29:47.051Z,95.01
2022-08-17T18:32:33.739Z,94.85
2022-08-17T18:35:28.574Z,94.84
2022-08-17T18:38:20.621Z,94.54
2022-08-17T18:41:20.070Z,94.37
2022-08-17T18:44:03.832Z,93.85
2022-08-17T18:46:37.715Z,92.90
2022-08-17T18:49:19.747Z,92.75
2022-08-17T18:51:47.942Z,92.57
2022-08-17T18:54:23.157Z,92.30
2022-08-17T18:56:56.108Z,91.90
2022-08-17T18:59:29.728Z,91.69
2022-08-17T19:02:23.147Z,91.29
2022-08-17T19:04:59.723Z,90.96
2022-08-17T19:07:32.661Z,90.77
2022-08-17T19:10:26.198Z,91.26
2022-08-17T19:13:12.552Z,91.14
2022-08-17T19:16:11.821Z,90.60
2022-08-17T19:18:51.021Z,90.56
2022-08-17T19:21:26.864Z,90.74
2022-08-17T19:24:06.245Z,90.67
2022-08-17T19:26:54.052Z,90.44
2022-08-17T19:29:36.438Z,91.04
2022-08-17T19:32:07.554Z,91.11
2022-08-17T19:34:38.657Z,90.71
2022-08-17T19:37:34.665Z,90.79
2022-08-17T19:40:52.176Z,90.99
2022-08-17T19:43:42.534Z,90.93
2022-08-17T19:46:16.458Z,90.69
2022-08-17T19:49:06.295Z,90.55
2022-08-17T19:51:47.393Z,91.02
2022-08-17T19:54:29.135Z,91.15
2022-08-17T19:57:09.607Z,90.90
2022-08-17T20:00:15.660Z,90.50
2022-08-17T20:03:09.243Z,91.01
2022-08-17T20:06:09.199Z,91.64
2022-08-17T20:08:39.526Z,91.90
2022-08-17T20:11:25.038Z,91.51
2022-08-17T20:14:03.816Z,91.03
2022-08-17T20:16:33.652Z,90.69
2022-08-17T20:19:08.440Z,90.48
2022-08-17T20:22:00.260Z,90.30
2022-08-17T20:24:31.851Z,90.07
2022-08-17T20:27:17.221Z,90.33
2022-08-17T20:30:06.486Z,90.21
2022-08-17T20:32:56.896Z,89.99
2022-08-17T20:35:31.888Z,89.89
2022-08-17T20:38:11.350Z,89.60
2022-08-17T20:40:54.749Z,89.47
2022-08-17T20:43:33.751Z,89.94
2022-08-17T20:46:07.989Z,89.67
2022-08-17T20:48:44.995Z,89.77
2022-08-17T20:51:38.750Z,89.84
2022-08-17T20:54:28.302Z,90.29
2022-08-17T20:56:59.286Z,90.83
2022-08-17T20:59:28.738Z,91.23
2022-08-17T21:02:18.502Z,91.27
2022-08-17T21:04:50.223Z,91.82
2022-08-17T21:07:52.736Z,92.56
2022-08-17T21:10:23.688Z,92.90
2022-08-17T21:13:23.828Z,93.16
2022-08-17T21:16:00.672Z,93.52
2022-08-17T21:18:52.297Z,93.28
2022-08-17T21:21:24.121Z,92.80
2022-08-17T21:24:11.760Z,92.32
2022-08-17T21:26:54.058Z,91.66
2022-08-17T21:29:30.860Z,91.30
2022-08-17T21:32:05.383Z,90.80
2022-08-17T21:34:38.339Z,90.95
2022-08-17T21:37:29.717Z,90.78
2022-08-17T21:40:21.656Z,90.42
2022-08-17T21:42:50.566Z,90.11
2022-08-17T21:45:19.180Z,89.96
2022-08-17T21:48:07.099Z,89.80
2022-08-17T21:50:35.995Z,89.80
2022-08-17T21:53:05.461Z,89.85
2022-08-17T21:55:37.164Z,89.59
2022-08-17T21:58:17.531Z,89.38
2022-08-17T22:00:45.808Z,89.16
2022-08-17T22:03:28.877Z,88.99
2022-08-17T22:05:56.987Z,89.52
2022-08-17T22:08:25.403Z,89.76
2022-08-17T22:11:02.267Z,89.68
2022-08-17T22:13:30.480Z,89.13
2022-08-17T22:16:28.031Z,89.09
2022-08-17T22:19:00.438Z,89.21
2022-08-17T22:21:28.584Z,89.14
2022-08-17T22:24:04.154Z,89.01
2022-08-17T22:27:08.976Z,89.03
2022-08-17T22:29:47.942Z,88.89
2022-08-17T22:32:41.696Z,89.07
2022-08-17T22:35:18.361Z,89.22
2022-08-17T22:37:46.674Z,89.36
2022-08-17T22:40:29.212Z,89.54
2022-08-17T22:42:58.367Z,89.70
2022-08-17T22:45:30.605Z,90.02
2022-08-17T22:48:00.638Z,90.00
2022-08-17T22:50:33.314Z,90.24
2022-08-17T22:53:30.558Z,90.77
2022-08-17T22:56:17.498Z,90.61
2022-08-17T22:59:14.398Z,90.23
2022-08-17T23:01:45.565Z,91.12
2022-08-17T23:04:32.952Z,91.51
2022-08-17T23:07:01.320Z,91.89
2022-08-17T23:09:30.057Z,92.06
2022-08-17T23:11:59.152Z,91.93
2022-08-17T23:14:32.018Z,91.72
2022-08-17T23:17:01.720Z,91.69
2022-08-17T23:19:33.370Z,91.83
2022-08-17T23:22:04.576Z,91.99
2022-08-17T23:24:40.682Z,92.16
2022-08-17T23:27:08.859Z,92.27
2022-08-17T23:29:42.309Z,92.29
2022-08-17T23:32:14.839Z,92.15
2022-08-17T23:34:44.735Z,92.28
2022-08-17T23:37:12.987Z,92.41
2022-08-17T23:39:44.707Z,92.65
2022-08-17T23:42:16.726Z,92.41
2022-08-17T23:44:45.133Z,92.57
2022-08-17T23:47:13.355Z,92.53
2022-08-17T23:49:42.330Z,92.93
2022-08-17T23:52:16.457Z,93.23
2022-08-17T23:54:47.545Z,93.64
2022-08-17T23:57:19.334Z,94.30
2022-08-17T23:59:47.582Z,94.54
